createdAt,value
2018-02-17T00:00:38.507Z,27.08
2018-02-17T00:03:06.689Z,34.85
2018-02-17T00:05:34.704Z,33.17
2018-02-17T00:08:02.842Z,28.58
2018-02-17T00:10:30.688Z,28.35
2018-02-17T00:12:58.778Z,29.65
2018-02-17T00:15:27.341Z,27.98
2018-02-17T00:17:55.265Z,25.37
2018-02-17T00:20:23.841Z,30.90
2018-02-17T00:22:51.698Z,27.05
2018-02-17T00:25:19.717Z,30.85
2018-02-17T00:27:47.745Z,26.08
2018-02-17T00:30:16.767Z,26.08
2018-02-17T00:32:44.747Z,30.90
2018-02-17T00:35:12.680Z,22.92
2018-02-17T00:37:40.594Z,27.45
2018-02-17T00:40:09.017Z,28.42
2018-02-17T00:42:36.986Z,27.45
2018-02-17T00:45:04.854Z,26.55
2018-02-17T00:47:33.096Z,24.92
2018-02-17T00:50:01.046Z,21.42
2018-02-17T00:52:28.967Z,21.70
2018-02-17T00:54:57.692Z,23.25
2018-02-17T00:57:28.067Z,21.30
2018-02-17T00:59:56.878Z,37.85
2018-02-17T01:02:24.802Z,24.27
2018-02-17T01:04:55.100Z,22.85
2018-02-17T01:07:23.894Z,45.63
2018-02-17T01:09:51.742Z,31.40
2018-02-17T01:12:19.725Z,35.97
2018-02-17T01:14:48.361Z,31.10
2018-02-17T01:17:16.696Z,24.30
2018-02-17T01:19:44.739Z,30.42
2018-02-17T01:22:13.406Z,31.17
2018-02-17T01:24:41.372Z,30.23
2018-02-17T01:27:09.552Z,28.48
2018-02-17T01:29:37.995Z,33.40
2018-02-17T01:32:06.149Z,26.73
2018-02-17T01:34:34.575Z,27.85
2018-02-17T01:37:02.529Z,28.35
2018-02-17T01:39:30.770Z,29.48
2018-02-17T01:41:58.826Z,26.92
2018-02-17T01:44:27.656Z,30.92
2018-02-17T01:46:55.626Z,29.17
2018-02-17T01:49:24.439Z,26.87
2018-02-17T01:51:52.317Z,28.95
2018-02-17T01:54:20.465Z,29.50
2018-02-17T01:56:48.818Z,26.20
2018-02-17T01:59:16.907Z,29.83
2018-02-17T02:01:44.863Z,34.45
2018-02-17T02:04:13.640Z,35.95
2018-02-17T02:06:42.375Z,39.33
2018-02-17T02:09:10.601Z,29.70
2018-02-17T02:11:38.860Z,37.30
2018-02-17T02:14:06.818Z,32.83
2018-02-17T02:16:34.901Z,29.75
2018-02-17T02:19:02.931Z,32.90
2018-02-17T02:21:30.890Z,29.87
2018-02-17T02:23:58.913Z,68.70
2018-02-17T02:26:27.027Z,31.50
2018-02-17T02:28:55.207Z,42.08
2018-02-17T02:31:23.561Z,32.25
2018-02-17T02:33:51.659Z,31.60
2018-02-17T02:36:19.877Z,33.70
2018-02-17T02:38:47.869Z,46.13
2018-02-17T02:41:15.736Z,64.90
2018-02-17T02:43:43.620Z,38.90
2018-02-17T02:46:11.884Z,40.28
2018-02-17T02:48:40.775Z,38.58
2018-02-17T02:51:12.055Z,36.83
2018-02-17T02:53:40.740Z,39.90
2018-02-17T02:56:08.679Z,32.58
2018-02-17T02:58:37.488Z,42.55
2018-02-17T03:01:07.332Z,42.20
2018-02-17T03:03:35.267Z,33.67
2018-02-17T03:06:04.011Z,34.28
2018-02-17T03:08:31.966Z,56.90
2018-02-17T03:10:59.941Z,41.08
2018-02-17T03:13:27.965Z,32.47
2018-02-17T03:15:57.162Z,43.42
2018-02-17T03:18:25.905Z,54.97
2018-02-17T03:20:54.184Z,44.97
2018-02-17T03:23:22.370Z,74.97
2018-02-17T03:25:51.152Z,44.88
2018-02-17T03:28:19.314Z,58.80
2018-02-17T03:30:47.378Z,36.83
2018-02-17T03:33:16.579Z,61.83
2018-02-17T03:35:44.939Z,61.75
2018-02-17T03:38:13.723Z,55.90
2018-02-17T03:40:41.850Z,44.35
2018-02-17T03:43:18.615Z,52.22
2018-02-17T03:45:46.739Z,34.20
2018-02-17T03:48:23.328Z,45.65
2018-02-17T03:50:53.075Z,36.47
2018-02-17T03:53:23.674Z,37.40
2018-02-17T03:55:51.676Z,44.15
2018-02-17T03:58:20.600Z,67.18
2018-02-17T04:00:48.540Z,71.18
2018-02-17T04:03:16.730Z,62.22
2018-02-17T04:05:44.812Z,47.25
2018-02-17T04:08:13.812Z,34.20
2018-02-17T04:10:42.680Z,48.70
2018-02-17T04:13:11.031Z,66.10
2018-02-17T04:15:40.053Z,42.45
2018-02-17T04:18:08.146Z,46.47
2018-02-17T04:20:36.438Z,40.88
2018-02-17T04:23:04.370Z,35.45
2018-02-17T04:25:32.401Z,44.95
2018-02-17T04:28:01.265Z,28.83
2018-02-17T04:30:32.311Z,35.38
2018-02-17T04:33:00.475Z,33.67
2018-02-17T04:35:29.326Z,41.85
2018-02-17T04:37:59.610Z,33.72
2018-02-17T04:40:28.124Z,40.22
2018-02-17T04:42:56.128Z,49.28
2018-02-17T04:45:24.210Z,26.75
2018-02-17T04:47:52.954Z,31.73
2018-02-17T04:50:21.180Z,29.40
2018-02-17T04:52:49.236Z,26.80
2018-02-17T04:55:18.217Z,27.33
2018-02-17T04:57:46.305Z,27.90
2018-02-17T05:00:14.410Z,31.60
2018-02-17T05:02:42.315Z,27.85
2018-02-17T05:05:10.676Z,28.30
2018-02-17T05:07:44.016Z,27.95
2018-02-17T05:10:12.449Z,27.02
2018-02-17T05:12:41.208Z,25.48
2018-02-17T05:15:09.282Z,32.15
2018-02-17T05:17:45.877Z,32.17
2018-02-17T05:20:13.899Z,47.28
2018-02-17T05:22:42.706Z,28.05
2018-02-17T05:25:10.980Z,33.70
2018-02-17T05:27:39.031Z,31.50
2018-02-17T05:30:08.369Z,29.37
2018-02-17T05:32:37.154Z,35.50
2018-02-17T05:35:05.979Z,30.55
2018-02-17T05:37:34.606Z,28.65
2018-02-17T05:40:02.611Z,30.75
2018-02-17T05:42:31.648Z,28.90
2018-02-17T05:44:59.738Z,26.10
2018-02-17T05:47:27.688Z,26.62
2018-02-17T05:49:55.987Z,24.15
2018-02-17T05:52:23.959Z,22.70
2018-02-17T05:54:52.150Z,29.35
2018-02-17T05:57:29.671Z,26.80
2018-02-17T05:59:58.356Z,27.55
2018-02-17T06:02:26.886Z,24.90
2018-02-17T06:04:54.941Z,27.40
2018-02-17T06:07:23.026Z,28.23
2018-02-17T06:09:51.916Z,26.30
2018-02-17T06:12:20.535Z,27.08
2018-02-17T06:14:48.417Z,20.83
2018-02-17T06:17:17.081Z,20.50
2018-02-17T06:19:45.015Z,24.00
2018-02-17T06:22:13.192Z,22.27
2018-02-17T06:24:41.232Z,23.02
2018-02-17T06:27:09.574Z,25.15
2018-02-17T06:29:37.530Z,19.60
2018-02-17T06:32:05.112Z,20.10
2018-02-17T06:34:33.893Z,22.33
2018-02-17T06:37:01.916Z,23.98
2018-02-17T06:39:31.122Z,26.85
2018-02-17T06:41:59.173Z,21.55
2018-02-17T06:44:27.930Z,19.77
2018-02-17T06:46:56.158Z,20.75
2018-02-17T06:49:24.408Z,19.27
2018-02-17T06:51:52.854Z,17.90
2018-02-17T06:54:21.232Z,21.67
2018-02-17T06:56:49.181Z,21.25
2018-02-17T06:59:17.360Z,20.25
2018-02-17T07:01:45.220Z,23.02
2018-02-17T07:04:13.039Z,21.60
2018-02-17T07:06:44.406Z,19.77
2018-02-17T07:09:12.972Z,30.35
2018-02-17T07:11:40.939Z,25.62
2018-02-17T07:14:10.386Z,23.85
2018-02-17T07:16:44.449Z,24.85
2018-02-17T07:19:12.332Z,24.05
2018-02-17T07:21:42.171Z,21.35
2018-02-17T07:24:10.204Z,24.98
2018-02-17T07:26:39.124Z,27.52
2018-02-17T07:29:08.111Z,22.20
2018-02-17T07:31:36.084Z,24.10
2018-02-17T07:34:05.283Z,26.08
2018-02-17T07:36:33.154Z,25.67
2018-02-17T07:39:01.396Z,23.85
2018-02-17T07:41:29.403Z,24.05
2018-02-17T07:43:58.118Z,26.27
2018-02-17T07:46:29.605Z,24.08
2018-02-17T07:48:57.690Z,23.45
2018-02-17T07:51:26.992Z,24.85
2018-02-17T07:53:57.235Z,21.55
2018-02-17T07:56:26.020Z,21.33
2018-02-17T07:58:54.899Z,25.02
2018-02-17T08:01:24.131Z,20.17
2018-02-17T08:03:52.089Z,25.10
2018-02-17T08:06:20.323Z,22.15
2018-02-17T08:08:49.758Z,20.92
2018-02-17T08:11:18.371Z,23.10
2018-02-17T08:13:46.276Z,21.67
2018-02-17T08:16:14.862Z,27.05
2018-02-17T08:18:45.472Z,25.95
2018-02-17T08:21:13.497Z,24.10
2018-02-17T08:23:41.438Z,23.77
2018-02-17T08:26:14.160Z,25.40
2018-02-17T08:28:42.836Z,23.02
2018-02-17T08:31:10.787Z,26.87
2018-02-17T08:33:39.676Z,24.67
2018-02-17T08:36:08.764Z,23.17
2018-02-17T08:38:37.653Z,22.17
2018-02-17T08:41:06.436Z,22.65
2018-02-17T08:43:35.501Z,25.10
2018-02-17T08:46:03.426Z,23.67
2018-02-17T08:48:31.507Z,23.83
2018-02-17T08:51:02.207Z,22.33
2018-02-17T08:53:30.366Z,22.73
2018-02-17T08:56:01.904Z,25.00
2018-02-17T08:58:30.091Z,25.00
2018-02-17T09:01:00.151Z,26.08
2018-02-17T09:03:29.877Z,26.73
2018-02-17T09:05:58.519Z,28.00
2018-02-17T09:08:26.546Z,26.02
2018-02-17T09:11:05.003Z,24.17
2018-02-17T09:13:33.894Z,25.98
2018-02-17T09:19:11.608Z,25.33
2018-02-17T09:21:42.168Z,24.92
2018-02-17T09:24:30.686Z,22.85
2018-02-17T09:27:02.762Z,23.62
2018-02-17T09:29:31.007Z,24.95
2018-02-17T09:32:00.762Z,24.42
2018-02-17T09:34:28.931Z,24.65
2018-02-17T09:36:56.834Z,26.33
2018-02-17T09:39:29.127Z,29.05
2018-02-17T09:41:59.119Z,35.20
2018-02-17T09:44:28.242Z,27.83
2018-02-17T09:46:58.437Z,28.30
2018-02-17T09:49:28.458Z,30.62
2018-02-17T09:51:56.544Z,28.95
2018-02-17T09:55:12.646Z,29.48
2018-02-17T09:57:41.046Z,26.30
2018-02-17T10:00:13.604Z,28.62
2018-02-17T10:02:42.273Z,26.98
2018-02-17T10:05:25.970Z,27.05
2018-02-17T10:07:55.533Z,29.20
2018-02-17T10:10:26.270Z,31.33
2018-02-17T10:12:57.175Z,27.08
2018-02-17T10:15:26.197Z,24.27
2018-02-17T10:17:54.508Z,24.80
2018-02-17T10:20:23.018Z,27.83
2018-02-17T10:22:51.836Z,28.25
2018-02-17T10:25:30.863Z,25.83
2018-02-17T10:28:00.541Z,24.47
2018-02-17T10:30:28.762Z,26.03
2018-02-17T10:32:56.824Z,28.80
2018-02-17T10:35:24.949Z,28.73
2018-02-17T10:37:52.926Z,27.30
2018-02-17T10:40:21.025Z,27.67
2018-02-17T10:42:49.291Z,25.53
2018-02-17T10:45:20.131Z,25.17
2018-02-17T10:48:03.159Z,27.20
2018-02-17T10:50:32.303Z,28.97
2018-02-17T10:53:01.676Z,29.73
2018-02-17T10:55:34.464Z,26.10
2018-02-17T10:58:16.512Z,28.23
2018-02-17T11:00:46.345Z,26.07
2018-02-17T11:03:15.400Z,24.80
2018-02-17T11:05:44.056Z,30.30
2018-02-17T11:08:14.531Z,29.10
2018-02-17T11:10:43.111Z,23.50
2018-02-17T11:13:12.127Z,30.53
2018-02-17T11:15:42.102Z,28.10
2018-02-17T11:18:10.956Z,27.03
2018-02-17T11:20:39.177Z,28.73
2018-02-17T11:23:08.705Z,27.77
2018-02-17T11:25:37.060Z,28.53
2018-02-17T11:28:05.329Z,24.63
2018-02-17T11:30:34.926Z,22.67
2018-02-17T11:33:15.731Z,31.03
2018-02-17T11:38:59.445Z,24.83
2018-02-17T11:41:28.620Z,23.93
2018-02-17T11:43:57.171Z,23.23
2018-02-17T11:46:25.640Z,25.17
2018-02-17T11:48:53.687Z,25.00
2018-02-17T11:51:21.727Z,28.43
2018-02-17T11:53:56.170Z,23.50
2018-02-17T11:56:24.498Z,21.33
2018-02-17T11:59:18.471Z,26.03
2018-02-17T12:01:47.068Z,28.67
2018-02-17T12:04:25.089Z,22.83
2018-02-17T12:06:53.846Z,26.67
2018-02-17T12:09:28.063Z,24.53
2018-02-17T12:11:56.088Z,23.33
2018-02-17T12:14:29.670Z,26.80
2018-02-17T12:16:58.349Z,23.57
2018-02-17T12:19:28.204Z,24.47
2018-02-17T12:21:56.285Z,27.70
2018-02-17T12:26:58.491Z,27.70
2018-02-17T12:29:26.559Z,24.10
2018-02-17T12:31:56.670Z,25.60
2018-02-17T12:34:24.746Z,27.43
2018-02-17T12:36:56.221Z,25.00
2018-02-17T12:39:24.848Z,26.90
2018-02-17T12:41:52.909Z,22.30
2018-02-17T12:44:22.115Z,23.80
2018-02-17T12:46:50.265Z,23.53
2018-02-17T12:49:18.232Z,21.47
2018-02-17T12:51:48.480Z,22.83
2018-02-17T12:54:16.671Z,27.43
2018-02-17T12:56:52.641Z,24.93
2018-02-17T12:59:24.148Z,20.30
2018-02-17T13:01:52.274Z,23.97
2018-02-17T13:04:20.518Z,20.27
2018-02-17T13:06:49.420Z,25.00
2018-02-17T13:09:17.665Z,21.83
2018-02-17T13:12:00.845Z,22.27
2018-02-17T13:14:28.830Z,24.37
2018-02-17T13:16:58.807Z,24.10
2018-02-17T13:19:26.883Z,22.60
2018-02-17T13:22:13.144Z,26.03
2018-02-17T13:24:43.047Z,25.53
2018-02-17T13:27:14.017Z,20.13
2018-02-17T13:29:42.224Z,28.93
2018-02-17T13:32:11.371Z,23.43
2018-02-17T13:34:41.699Z,23.77
2018-02-17T13:37:09.725Z,22.60
2018-02-17T13:39:44.613Z,24.27
2018-02-17T13:42:32.914Z,23.97
2018-02-17T13:45:17.706Z,24.43
2018-02-17T13:47:46.303Z,21.57
2018-02-17T13:50:28.865Z,22.73
2018-02-17T13:52:57.649Z,23.43
2018-02-17T13:55:26.349Z,21.37
2018-02-17T13:57:58.014Z,25.97
2018-02-17T14:01:07.328Z,22.27
2018-02-17T14:03:40.098Z,22.27
2018-02-17T14:06:08.168Z,21.30
2018-02-17T14:08:44.801Z,26.60
2018-02-17T14:11:20.134Z,27.42
2018-02-17T15:05:57.311Z,30.27
2018-02-17T15:08:26.919Z,31.12
2018-02-17T15:10:58.507Z,27.63
2018-02-17T15:13:28.252Z,34.58
2018-02-17T15:15:56.239Z,31.17
2018-02-17T15:18:24.584Z,32.75
2018-02-17T15:20:54.436Z,26.20
2018-02-17T15:23:22.868Z,33.13
2018-02-17T15:31:44.051Z,38.17
2018-02-17T15:34:12.577Z,33.63
2018-02-17T16:04:21.692Z,29.67
2018-02-17T16:06:59.772Z,29.60
2018-02-17T16:09:45.801Z,34.10
2018-02-17T16:12:14.628Z,33.90
2018-02-17T16:25:09.528Z,38.53
2018-02-17T16:28:04.541Z,29.67
2018-02-17T16:30:44.824Z,30.17
2018-02-17T16:33:18.000Z,36.13
2018-02-17T16:36:02.110Z,27.10
2018-02-17T16:38:30.795Z,35.15
2018-02-17T16:41:01.823Z,30.33
2018-02-17T16:43:35.747Z,33.30
2018-02-17T16:46:06.780Z,30.27
2018-02-17T16:49:02.378Z,29.03
2018-02-17T16:51:31.215Z,28.27
2018-02-17T16:53:59.251Z,34.17
2018-02-17T16:56:28.683Z,35.70
2018-02-17T16:58:57.794Z,29.20
2018-02-17T17:01:26.834Z,31.67
2018-02-17T17:07:11.620Z,31.57
2018-02-17T17:10:22.499Z,35.80
2018-02-17T17:12:52.019Z,29.83
2018-02-17T17:16:02.723Z,31.60
2018-02-17T17:18:34.409Z,28.83
2018-02-17T17:21:03.955Z,29.70
2018-02-17T17:23:39.018Z,28.03
2018-02-17T17:26:11.854Z,27.17
2018-02-17T17:28:44.284Z,32.20
2018-02-17T17:31:13.451Z,29.83
2018-02-17T17:33:44.292Z,27.00
2018-02-17T17:36:34.274Z,31.90
2018-02-17T17:39:07.457Z,29.47
2018-02-17T17:41:43.086Z,32.57
2018-02-17T17:44:14.694Z,29.80
2018-02-17T17:49:51.592Z,32.03
2018-02-17T17:52:28.392Z,31.10
2018-02-17T17:55:04.554Z,29.57
2018-02-17T17:57:34.480Z,31.50
2018-02-17T18:00:12.239Z,31.43
2018-02-17T18:06:33.622Z,33.23
2018-02-17T18:09:24.273Z,32.43
2018-02-17T18:11:58.854Z,35.63
2018-02-17T18:14:35.564Z,35.37
2018-02-17T18:17:06.956Z,28.43
2018-02-17T18:19:40.915Z,29.57
2018-02-17T18:22:10.985Z,32.20
2018-02-17T18:24:41.511Z,35.28
2018-02-17T18:27:13.461Z,30.80
2018-02-17T18:29:55.033Z,34.53
2018-02-17T18:32:45.744Z,31.90
2018-02-17T18:35:21.677Z,32.67
2018-02-17T18:37:57.730Z,32.13
2018-02-17T18:40:42.610Z,32.03
2018-02-17T18:43:16.499Z,37.05
2018-02-17T18:45:49.270Z,35.78
2018-02-17T18:48:29.406Z,37.07
2018-02-17T18:51:07.938Z,32.92
2018-02-17T18:53:51.826Z,36.03
2018-02-17T18:56:38.046Z,31.60
2018-02-17T18:59:12.111Z,44.07
2018-02-17T19:05:35.965Z,55.38
2018-02-17T19:08:17.798Z,52.28
2018-02-17T19:10:54.866Z,40.85
2018-02-17T19:16:09.065Z,52.83
2018-02-17T19:18:38.966Z,47.33
2018-02-17T19:21:07.755Z,43.95
2018-02-17T19:23:38.060Z,41.45
2018-02-17T19:26:16.979Z,47.05
2018-02-17T19:28:45.452Z,44.83
2018-02-17T19:31:31.796Z,41.55
2018-02-17T19:34:02.257Z,39.05
2018-02-17T19:36:35.178Z,47.30
2018-02-17T19:39:04.307Z,43.47
2018-02-17T19:41:53.152Z,43.08
2018-02-17T19:44:56.146Z,39.40
2018-02-17T19:47:27.254Z,39.97
2018-02-17T19:49:56.799Z,39.22
2018-02-17T19:52:28.215Z,43.75
2018-02-17T19:54:59.746Z,38.85
2018-02-17T19:57:31.815Z,42.78
2018-02-17T20:00:04.593Z,41.33
2018-02-17T20:02:36.701Z,42.85
2018-02-17T20:05:05.524Z,45.30
2018-02-17T20:07:34.251Z,42.30
2018-02-17T20:10:05.228Z,41.13
2018-02-17T20:12:37.195Z,39.47
2018-02-17T20:15:17.538Z,44.28
2018-02-17T20:17:50.282Z,43.60
2018-02-17T20:20:20.315Z,43.63
2018-02-17T20:22:49.315Z,37.75
2018-02-17T20:25:19.217Z,40.08
2018-02-17T20:27:49.515Z,43.83
2018-02-17T20:30:23.828Z,43.60
2018-02-17T20:32:59.031Z,42.03
2018-02-17T20:35:28.808Z,46.70
2018-02-17T20:38:02.643Z,45.85
2018-02-17T20:40:37.374Z,43.17
2018-02-17T20:43:12.150Z,45.95
2018-02-17T20:45:41.569Z,44.92
2018-02-17T20:48:12.730Z,44.17
2018-02-17T20:50:42.637Z,59.53
2018-02-17T20:53:13.360Z,48.50
2018-02-17T20:55:44.703Z,45.78
2018-02-17T20:58:14.331Z,49.85
2018-02-17T21:00:47.725Z,43.55
2018-02-17T21:03:23.126Z,46.25
2018-02-17T21:05:53.696Z,57.30
2018-02-17T21:08:24.244Z,48.70
2018-02-17T21:11:10.721Z,50.63
2018-02-17T21:13:39.195Z,50.42
2018-02-17T21:16:15.230Z,53.30
2018-02-17T21:18:45.081Z,52.22
2018-02-17T21:21:16.132Z,53.00
2018-02-17T21:23:45.418Z,56.47
2018-02-17T21:26:14.880Z,53.67
2018-02-17T21:28:45.710Z,55.90
2018-02-17T21:31:21.837Z,51.22
2018-02-17T21:33:51.888Z,48.28
2018-02-17T21:36:22.636Z,51.08
2018-02-17T21:38:52.915Z,47.72
2018-02-17T21:41:27.719Z,45.72
2018-02-17T21:43:56.397Z,49.25
2018-02-17T21:46:24.391Z,47.85
2018-02-17T21:48:53.232Z,54.03
2018-02-17T21:51:26.607Z,48.85
2018-02-17T21:53:55.838Z,52.95
2018-02-17T21:56:27.282Z,47.67
2018-02-17T21:58:59.554Z,49.13
2018-02-17T22:01:28.903Z,46.65
2018-02-17T22:03:59.251Z,49.40
2018-02-17T22:06:32.318Z,49.33
2018-02-17T22:09:07.312Z,55.05
2018-02-17T22:11:37.997Z,54.95
2018-02-17T22:14:10.802Z,59.42
2018-02-17T22:16:40.244Z,54.35
2018-02-17T22:19:11.702Z,56.28
2018-02-17T22:21:41.317Z,55.60
2018-02-17T22:24:16.594Z,51.35
2018-02-17T22:26:49.048Z,53.05
2018-02-17T22:29:22.485Z,53.53
2018-02-17T22:31:53.979Z,53.03
2018-02-17T22:34:26.165Z,48.78
2018-02-17T22:36:56.339Z,54.03
2018-02-17T22:39:29.624Z,50.63
2018-02-17T22:42:02.933Z,54.75
2018-02-17T22:44:38.755Z,53.80
2018-02-17T22:47:09.728Z,50.65
2018-02-17T22:49:42.318Z,54.17
2018-02-17T22:52:13.697Z,52.67
2018-02-17T22:54:45.991Z,49.80
2018-02-17T22:57:18.042Z,57.62
2018-02-17T22:59:50.413Z,55.90
2018-02-17T23:02:18.360Z,53.40
2018-02-17T23:04:46.351Z,53.10
2018-02-17T23:07:14.281Z,53.65
2018-02-17T23:09:42.146Z,50.55
2018-02-17T23:12:10.121Z,56.15
2018-02-17T23:14:38.017Z,52.10
2018-02-17T23:17:05.922Z,58.92
2018-02-17T23:19:34.763Z,47.55
2018-02-17T23:22:02.741Z,56.42
2018-02-17T23:24:30.616Z,54.92
2018-02-17T23:26:59.321Z,53.08
2018-02-17T23:29:27.259Z,49.03
2018-02-17T23:31:56.008Z,48.80
2018-02-17T23:34:23.901Z,45.60
2018-02-17T23:36:51.814Z,53.45
2018-02-17T23:39:20.443Z,48.75
2018-02-17T23:41:48.441Z,49.70
2018-02-17T23:44:16.357Z,60.67
2018-02-17T23:46:45.116Z,51.72
2018-02-17T23:49:13.727Z,52.95
2018-02-17T23:51:41.622Z,55.47
2018-02-17T23:54:09.571Z,61.53
2018-02-17T23:56:37.395Z,65.22
2018-02-17T23:59:05.338Z,49.97
